Main page
METAR-TAF:

METAR-TAF

Airports :

Portorož Airport

Portorož, Slovenia

latitude: 45-31N, longitude: 013-34E, elevation: 95 m

Current weather observation

The report was made 33 minutes ago, at 07:30 UTC
Wind 8 kt from the East/Southeast
Temperature -1°C
Humidity 86%
Pressure 1014 hPa
Visibility 10 km or more
no clouds below 1500 m and no cumulonimbus

METAR: LJPZ 200730Z 12008KT CAVOK M01/M03 Q1014

Time: 09:03 (08:03 UTC)

Forecast

The report was made 3 hours and 3 minutes ago, at 05:00 UTC
Forecast valid from 20 at 06 UTC to 20 at 15 UTC
Wind 5 kt from the East/Southeast
Visibility 10 km or more
no clouds below 1500 m and no cumulonimbus
Becoming
from 20 at 08 UTC to 20 at 10 UTC
Wind 5 kt from the East/Northeast
Probability 40%
from 20 at 10 UTC to 20 at 15 UTC
Wind 5 kt from the North/Northwest

TAF: LJPZ 200500Z 2006/2015 12005KT CAVOK BECMG 2008/2010 06005KT PROB40 2010/2015 33005KT

Weather observations and forecasts of more than 4000 airports (METAR and TAF reports).

The available stations are represented by yellow and red dots on the map.

Hover mouse over dot to see the name of the station.

Then click to see weather observations and forecasts.

To change the map : click on the green buttons with a black cross to zoom in, on the green button with a dash to zoom out, or on the green arrows for adjacent maps.


METAR-TAF: